sensor_id;sensor_type;location;lat;lon;timestamp;P1;durP1;ratioP1;P2;durP2;ratioP2
4202;SDS011;2115;51.038;7.006;2022-12-18T00:01:36;359.90;;;98.83;;
4202;SDS011;2115;51.038;7.006;2022-12-18T00:04:03;337.20;;;94.17;;
4202;SDS011;2115;51.038;7.006;2022-12-18T00:06:30;331.67;;;97.60;;
4202;SDS011;2115;51.038;7.006;2022-12-18T00:08:56;340.03;;;98.73;;
4202;SDS011;2115;51.038;7.006;2022-12-18T00:11:23;322.67;;;93.97;;
4202;SDS011;2115;51.038;7.006;2022-12-18T00:13:50;322.63;;;94.23;;
4202;SDS011;2115;51.038;7.006;2022-12-18T00:16:17;332.87;;;96.20;;
4202;SDS011;2115;51.038;7.006;2022-12-18T00:18:50;335.97;;;96.67;;
4202;SDS011;2115;51.038;7.006;2022-12-18T00:21:17;340.27;;;97.70;;
4202;SDS011;2115;51.038;7.006;2022-12-18T00:23:44;332.70;;;95.80;;
4202;SDS011;2115;51.038;7.006;2022-12-18T00:26:15;338.17;;;96.30;;
4202;SDS011;2115;51.038;7.006;2022-12-18T00:28:42;329.17;;;95.53;;
4202;SDS011;2115;51.038;7.006;2022-12-18T00:31:10;334.70;;;98.10;;
4202;SDS011;2115;51.038;7.006;2022-12-18T00:33:37;329.87;;;95.17;;
4202;SDS011;2115;51.038;7.006;2022-12-18T00:36:07;331.00;;;95.87;;
4202;SDS011;2115;51.038;7.006;2022-12-18T00:38:37;338.10;;;97.87;;
4202;SDS011;2115;51.038;7.006;2022-12-18T00:41:04;327.10;;;94.23;;
4202;SDS011;2115;51.038;7.006;2022-12-18T00:43:29;335.20;;;95.30;;
4202;SDS011;2115;51.038;7.006;2022-12-18T00:45:55;342.83;;;98.13;;
4202;SDS011;2115;51.038;7.006;2022-12-18T00:48:21;340.00;;;97.20;;
4202;SDS011;2115;51.038;7.006;2022-12-18T00:50:47;339.83;;;97.30;;
4202;SDS011;2115;51.038;7.006;2022-12-18T00:53:13;342.40;;;98.37;;
4202;SDS011;2115;51.038;7.006;2022-12-18T00:55:39;330.00;;;95.20;;
4202;SDS011;2115;51.038;7.006;2022-12-18T00:58:05;345.70;;;98.37;;
4202;SDS011;2115;51.038;7.006;2022-12-18T01:00:31;338.70;;;96.27;;
4202;SDS011;2115;51.038;7.006;2022-12-18T01:02:56;360.23;;;103.43;;
4202;SDS011;2115;51.038;7.006;2022-12-18T01:05:21;337.17;;;95.43;;
4202;SDS011;2115;51.038;7.006;2022-12-18T01:07:47;354.87;;;100.03;;
4202;SDS011;2115;51.038;7.006;2022-12-18T01:10:12;341.73;;;98.20;;
4202;SDS011;2115;51.038;7.006;2022-12-18T01:12:38;342.27;;;97.20;;
4202;SDS011;2115;51.038;7.006;2022-12-18T01:15:05;348.73;;;98.33;;
4202;SDS011;2115;51.038;7.006;2022-12-18T01:17:31;358.17;;;101.23;;
4202;SDS011;2115;51.038;7.006;2022-12-18T01:19:57;352.93;;;99.37;;
4202;SDS011;2115;51.038;7.006;2022-12-18T01:22:22;360.23;;;101.60;;
4202;SDS011;2115;51.038;7.006;2022-12-18T01:24:48;344.70;;;98.77;;
4202;SDS011;2115;51.038;7.006;2022-12-18T01:27:13;352.93;;;98.07;;
4202;SDS011;2115;51.038;7.006;2022-12-18T01:29:39;354.37;;;100.93;;
4202;SDS011;2115;51.038;7.006;2022-12-18T01:32:04;362.53;;;101.77;;
4202;SDS011;2115;51.038;7.006;2022-12-18T01:34:30;343.47;;;99.07;;
4202;SDS011;2115;51.038;7.006;2022-12-18T01:36:55;347.20;;;99.80;;
4202;SDS011;2115;51.038;7.006;2022-12-18T01:39:21;336.93;;;97.27;;
4202;SDS011;2115;51.038;7.006;2022-12-18T01:41:46;340.27;;;98.03;;
4202;SDS011;2115;51.038;7.006;2022-12-18T01:47:12;340.83;;;97.77;;
4202;SDS011;2115;51.038;7.006;2022-12-18T01:49:40;335.20;;;97.17;;
4202;SDS011;2115;51.038;7.006;2022-12-18T01:52:06;336.97;;;98.37;;
4202;SDS011;2115;51.038;7.006;2022-12-18T01:54:32;335.57;;;97.03;;
4202;SDS011;2115;51.038;7.006;2022-12-18T01:56:57;325.47;;;93.87;;
4202;SDS011;2115;51.038;7.006;2022-12-18T01:59:23;326.40;;;94.17;;
4202;SDS011;2115;51.038;7.006;2022-12-18T02:01:48;336.90;;;97.90;;
4202;SDS011;2115;51.038;7.006;2022-12-18T02:06:51;350.60;;;102.00;;
4202;SDS011;2115;51.038;7.006;2022-12-18T02:09:23;345.40;;;100.03;;
4202;SDS011;2115;51.038;7.006;2022-12-18T02:11:59;340.43;;;98.77;;
4202;SDS011;2115;51.038;7.006;2022-12-18T02:25:10;348.80;;;100.23;;
4202;SDS011;2115;51.038;7.006;2022-12-18T02:27:41;320.77;;;96.40;;
4202;SDS011;2115;51.038;7.006;2022-12-18T02:30:09;355.83;;;102.40;;
4202;SDS011;2115;51.038;7.006;2022-12-18T02:32:39;334.30;;;98.00;;
4202;SDS011;2115;51.038;7.006;2022-12-18T02:35:10;331.90;;;96.57;;
4202;SDS011;2115;51.038;7.006;2022-12-18T02:37:38;324.67;;;95.83;;
4202;SDS011;2115;51.038;7.006;2022-12-18T02:40:04;316.50;;;95.83;;
4202;SDS011;2115;51.038;7.006;2022-12-18T02:42:30;326.70;;;95.50;;
4202;SDS011;2115;51.038;7.006;2022-12-18T02:44:56;337.23;;;99.43;;
4202;SDS011;2115;51.038;7.006;2022-12-18T02:47:22;316.63;;;93.50;;
4202;SDS011;2115;51.038;7.006;2022-12-18T02:52:51;334.37;;;98.43;;
4202;SDS011;2115;51.038;7.006;2022-12-18T02:57:54;321.97;;;95.93;;
4202;SDS011;2115;51.038;7.006;2022-12-18T03:00:21;326.33;;;97.70;;
4202;SDS011;2115;51.038;7.006;2022-12-18T03:03:01;320.93;;;96.97;;
4202;SDS011;2115;51.038;7.006;2022-12-18T03:05:43;327.47;;;97.47;;
4202;SDS011;2115;51.038;7.006;2022-12-18T03:08:35;311.87;;;93.87;;
4202;SDS011;2115;51.038;7.006;2022-12-18T03:11:10;321.13;;;94.93;;
4202;SDS011;2115;51.038;7.006;2022-12-18T03:13:39;329.13;;;97.10;;
4202;SDS011;2115;51.038;7.006;2022-12-18T03:16:14;337.57;;;98.33;;
4202;SDS011;2115;51.038;7.006;2022-12-18T03:18:46;322.73;;;95.80;;
4202;SDS011;2115;51.038;7.006;2022-12-18T03:21:13;318.70;;;95.53;;
4202;SDS011;2115;51.038;7.006;2022-12-18T03:23:40;316.17;;;95.13;;
4202;SDS011;2115;51.038;7.006;2022-12-18T03:26:10;330.10;;;96.53;;
4202;SDS011;2115;51.038;7.006;2022-12-18T03:28:40;323.63;;;97.37;;
4202;SDS011;2115;51.038;7.006;2022-12-18T03:31:09;339.97;;;102.57;;
4202;SDS011;2115;51.038;7.006;2022-12-18T03:36:34;323.40;;;97.27;;
4202;SDS011;2115;51.038;7.006;2022-12-18T03:39:00;322.27;;;96.67;;
4202;SDS011;2115;51.038;7.006;2022-12-18T03:41:28;311.17;;;94.47;;
4202;SDS011;2115;51.038;7.006;2022-12-18T03:44:14;322.80;;;96.93;;
4202;SDS011;2115;51.038;7.006;2022-12-18T03:49:22;341.23;;;101.60;;
4202;SDS011;2115;51.038;7.006;2022-12-18T03:51:54;324.00;;;98.47;;
4202;SDS011;2115;51.038;7.006;2022-12-18T03:54:26;324.07;;;97.37;;
4202;SDS011;2115;51.038;7.006;2022-12-18T03:56:54;311.73;;;94.50;;
4202;SDS011;2115;51.038;7.006;2022-12-18T03:59:23;345.30;;;101.03;;
4202;SDS011;2115;51.038;7.006;2022-12-18T04:01:50;327.43;;;95.63;;
4202;SDS011;2115;51.038;7.006;2022-12-18T04:04:17;307.47;;;93.97;;
4202;SDS011;2115;51.038;7.006;2022-12-18T04:06:44;333.63;;;100.60;;
4202;SDS011;2115;51.038;7.006;2022-12-18T04:09:11;323.77;;;96.87;;
4202;SDS011;2115;51.038;7.006;2022-12-18T04:11:37;320.60;;;96.00;;
4202;SDS011;2115;51.038;7.006;2022-12-18T04:14:04;324.20;;;96.53;;
4202;SDS011;2115;51.038;7.006;2022-12-18T04:16:30;318.33;;;96.20;;
4202;SDS011;2115;51.038;7.006;2022-12-18T04:18:55;318.23;;;96.47;;
4202;SDS011;2115;51.038;7.006;2022-12-18T04:21:20;333.23;;;100.30;;
4202;SDS011;2115;51.038;7.006;2022-12-18T04:23:46;324.43;;;96.13;;
4202;SDS011;2115;51.038;7.006;2022-12-18T04:26:11;319.07;;;97.00;;
4202;SDS011;2115;51.038;7.006;2022-12-18T04:28:37;314.10;;;94.10;;
4202;SDS011;2115;51.038;7.006;2022-12-18T04:31:02;320.93;;;97.53;;
4202;SDS011;2115;51.038;7.006;2022-12-18T04:33:28;320.83;;;96.50;;
4202;SDS011;2115;51.038;7.006;2022-12-18T04:35:53;316.80;;;95.83;;
4202;SDS011;2115;51.038;7.006;2022-12-18T04:38:18;305.30;;;93.80;;
4202;SDS011;2115;51.038;7.006;2022-12-18T04:40:44;311.27;;;95.63;;
4202;SDS011;2115;51.038;7.006;2022-12-18T04:43:09;308.03;;;94.13;;
4202;SDS011;2115;51.038;7.006;2022-12-18T04:45:35;309.10;;;92.07;;
4202;SDS011;2115;51.038;7.006;2022-12-18T04:48:00;299.70;;;92.40;;
4202;SDS011;2115;51.038;7.006;2022-12-18T04:50:27;309.63;;;93.37;;
4202;SDS011;2115;51.038;7.006;2022-12-18T04:52:53;322.43;;;97.30;;
4202;SDS011;2115;51.038;7.006;2022-12-18T04:55:19;307.50;;;94.20;;
4202;SDS011;2115;51.038;7.006;2022-12-18T04:57:44;308.80;;;93.47;;
4202;SDS011;2115;51.038;7.006;2022-12-18T05:00:10;313.23;;;95.40;;
4202;SDS011;2115;51.038;7.006;2022-12-18T05:02:36;309.33;;;95.07;;
4202;SDS011;2115;51.038;7.006;2022-12-18T05:05:01;319.60;;;96.90;;
4202;SDS011;2115;51.038;7.006;2022-12-18T05:07:27;315.60;;;95.70;;
4202;SDS011;2115;51.038;7.006;2022-12-18T05:09:52;313.40;;;95.80;;
4202;SDS011;2115;51.038;7.006;2022-12-18T05:12:17;312.57;;;93.50;;
4202;SDS011;2115;51.038;7.006;2022-12-18T05:14:43;310.50;;;96.80;;
4202;SDS011;2115;51.038;7.006;2022-12-18T05:17:08;322.07;;;97.13;;
4202;SDS011;2115;51.038;7.006;2022-12-18T05:19:34;311.47;;;95.60;;
4202;SDS011;2115;51.038;7.006;2022-12-18T05:21:59;305.03;;;94.50;;
4202;SDS011;2115;51.038;7.006;2022-12-18T05:24:25;314.80;;;94.63;;
4202;SDS011;2115;51.038;7.006;2022-12-18T05:26:50;309.17;;;95.07;;
4202;SDS011;2115;51.038;7.006;2022-12-18T05:29:15;305.40;;;94.63;;
4202;SDS011;2115;51.038;7.006;2022-12-18T05:31:41;306.67;;;94.37;;
4202;SDS011;2115;51.038;7.006;2022-12-18T05:34:06;301.20;;;92.43;;
4202;SDS011;2115;51.038;7.006;2022-12-18T05:36:32;306.10;;;94.53;;
4202;SDS011;2115;51.038;7.006;2022-12-18T05:38:57;337.70;;;100.63;;
4202;SDS011;2115;51.038;7.006;2022-12-18T05:41:22;307.83;;;95.00;;
4202;SDS011;2115;51.038;7.006;2022-12-18T05:43:48;320.30;;;97.37;;
4202;SDS011;2115;51.038;7.006;2022-12-18T05:46:14;309.70;;;95.90;;
4202;SDS011;2115;51.038;7.006;2022-12-18T05:48:42;311.47;;;95.40;;
4202;SDS011;2115;51.038;7.006;2022-12-18T05:51:09;309.47;;;94.93;;
4202;SDS011;2115;51.038;7.006;2022-12-18T05:53:36;301.53;;;93.70;;
4202;SDS011;2115;51.038;7.006;2022-12-18T05:56:03;304.20;;;94.43;;
4202;SDS011;2115;51.038;7.006;2022-12-18T05:58:30;321.13;;;97.23;;
4202;SDS011;2115;51.038;7.006;2022-12-18T06:00:56;308.40;;;94.50;;
4202;SDS011;2115;51.038;7.006;2022-12-18T06:03:22;314.30;;;93.90;;
4202;SDS011;2115;51.038;7.006;2022-12-18T06:05:47;324.87;;;98.00;;
4202;SDS011;2115;51.038;7.006;2022-12-18T06:08:13;304.67;;;95.00;;
4202;SDS011;2115;51.038;7.006;2022-12-18T06:10:39;326.07;;;96.40;;
4202;SDS011;2115;51.038;7.006;2022-12-18T06:13:05;311.97;;;96.17;;
4202;SDS011;2115;51.038;7.006;2022-12-18T06:15:31;320.17;;;97.30;;
4202;SDS011;2115;51.038;7.006;2022-12-18T06:17:56;310.60;;;95.50;;
4202;SDS011;2115;51.038;7.006;2022-12-18T06:20:22;306.73;;;93.80;;
4202;SDS011;2115;51.038;7.006;2022-12-18T06:22:47;321.43;;;97.23;;
4202;SDS011;2115;51.038;7.006;2022-12-18T06:25:13;313.17;;;95.17;;
4202;SDS011;2115;51.038;7.006;2022-12-18T06:27:38;302.30;;;93.17;;
4202;SDS011;2115;51.038;7.006;2022-12-18T06:30:04;316.03;;;96.97;;
4202;SDS011;2115;51.038;7.006;2022-12-18T06:32:30;331.07;;;98.20;;
4202;SDS011;2115;51.038;7.006;2022-12-18T06:34:55;306.73;;;93.80;;
4202;SDS011;2115;51.038;7.006;2022-12-18T06:37:21;306.77;;;93.90;;
4202;SDS011;2115;51.038;7.006;2022-12-18T06:39:49;297.87;;;93.50;;
4202;SDS011;2115;51.038;7.006;2022-12-18T06:42:15;311.00;;;97.50;;
4202;SDS011;2115;51.038;7.006;2022-12-18T06:44:40;306.80;;;93.60;;
4202;SDS011;2115;51.038;7.006;2022-12-18T06:47:06;322.03;;;98.80;;
4202;SDS011;2115;51.038;7.006;2022-12-18T06:49:31;300.57;;;94.10;;
4202;SDS011;2115;51.038;7.006;2022-12-18T06:51:56;304.73;;;95.70;;
4202;SDS011;2115;51.038;7.006;2022-12-18T06:54:22;305.70;;;93.23;;
4202;SDS011;2115;51.038;7.006;2022-12-18T06:56:47;308.70;;;95.10;;
4202;SDS011;2115;51.038;7.006;2022-12-18T06:59:13;312.07;;;98.00;;
4202;SDS011;2115;51.038;7.006;2022-12-18T07:01:39;302.87;;;93.80;;
4202;SDS011;2115;51.038;7.006;2022-12-18T07:04:05;304.00;;;93.93;;
4202;SDS011;2115;51.038;7.006;2022-12-18T07:06:31;303.50;;;94.37;;
4202;SDS011;2115;51.038;7.006;2022-12-18T07:09:07;319.93;;;97.63;;
4202;SDS011;2115;51.038;7.006;2022-12-18T07:11:33;302.23;;;94.90;;
4202;SDS011;2115;51.038;7.006;2022-12-18T07:13:58;299.43;;;93.77;;
4202;SDS011;2115;51.038;7.006;2022-12-18T07:16:23;310.03;;;97.43;;
4202;SDS011;2115;51.038;7.006;2022-12-18T07:18:49;300.53;;;92.57;;
4202;SDS011;2115;51.038;7.006;2022-12-18T07:21:15;302.40;;;94.03;;
4202;SDS011;2115;51.038;7.006;2022-12-18T07:23:41;308.10;;;96.00;;
4202;SDS011;2115;51.038;7.006;2022-12-18T07:26:08;304.40;;;94.23;;
4202;SDS011;2115;51.038;7.006;2022-12-18T07:28:35;299.50;;;93.83;;
4202;SDS011;2115;51.038;7.006;2022-12-18T07:31:09;307.60;;;95.27;;
4202;SDS011;2115;51.038;7.006;2022-12-18T07:33:35;313.80;;;95.30;;
4202;SDS011;2115;51.038;7.006;2022-12-18T07:36:01;309.43;;;95.07;;
4202;SDS011;2115;51.038;7.006;2022-12-18T07:38:28;301.70;;;93.50;;
4202;SDS011;2115;51.038;7.006;2022-12-18T07:40:54;308.90;;;96.40;;
4202;SDS011;2115;51.038;7.006;2022-12-18T07:43:19;310.77;;;95.30;;
4202;SDS011;2115;51.038;7.006;2022-12-18T07:45:48;314.40;;;96.53;;
4202;SDS011;2115;51.038;7.006;2022-12-18T07:48:14;297.10;;;92.27;;
4202;SDS011;2115;51.038;7.006;2022-12-18T07:50:39;319.80;;;97.70;;
4202;SDS011;2115;51.038;7.006;2022-12-18T07:53:04;307.00;;;95.00;;
4202;SDS011;2115;51.038;7.006;2022-12-18T07:55:31;304.63;;;93.10;;
4202;SDS011;2115;51.038;7.006;2022-12-18T07:57:56;306.20;;;93.83;;
4202;SDS011;2115;51.038;7.006;2022-12-18T08:00:22;317.53;;;96.03;;
4202;SDS011;2115;51.038;7.006;2022-12-18T08:02:47;331.67;;;98.53;;
4202;SDS011;2115;51.038;7.006;2022-12-18T08:05:13;311.07;;;96.53;;
4202;SDS011;2115;51.038;7.006;2022-12-18T08:07:38;311.40;;;94.97;;
4202;SDS011;2115;51.038;7.006;2022-12-18T08:10:05;313.83;;;96.27;;
4202;SDS011;2115;51.038;7.006;2022-12-18T08:12:31;314.03;;;96.43;;
4202;SDS011;2115;51.038;7.006;2022-12-18T08:14:57;316.40;;;96.30;;
4202;SDS011;2115;51.038;7.006;2022-12-18T08:17:22;314.20;;;95.37;;
4202;SDS011;2115;51.038;7.006;2022-12-18T08:19:48;315.23;;;95.00;;
4202;SDS011;2115;51.038;7.006;2022-12-18T08:22:13;336.17;;;101.43;;
4202;SDS011;2115;51.038;7.006;2022-12-18T08:24:38;329.13;;;100.07;;
4202;SDS011;2115;51.038;7.006;2022-12-18T08:27:04;320.57;;;97.97;;
4202;SDS011;2115;51.038;7.006;2022-12-18T08:29:29;326.90;;;98.63;;
4202;SDS011;2115;51.038;7.006;2022-12-18T08:31:55;324.60;;;97.83;;
4202;SDS011;2115;51.038;7.006;2022-12-18T08:34:20;326.70;;;97.13;;
4202;SDS011;2115;51.038;7.006;2022-12-18T08:36:46;338.43;;;100.07;;
4202;SDS011;2115;51.038;7.006;2022-12-18T08:39:11;341.93;;;100.97;;
4202;SDS011;2115;51.038;7.006;2022-12-18T08:41:36;345.37;;;100.70;;
4202;SDS011;2115;51.038;7.006;2022-12-18T08:44:02;345.17;;;99.33;;
4202;SDS011;2115;51.038;7.006;2022-12-18T08:46:46;350.53;;;99.37;;
4202;SDS011;2115;51.038;7.006;2022-12-18T08:49:11;346.40;;;98.50;;
4202;SDS011;2115;51.038;7.006;2022-12-18T08:51:37;364.80;;;104.30;;
4202;SDS011;2115;51.038;7.006;2022-12-18T08:54:03;349.73;;;97.60;;
4202;SDS011;2115;51.038;7.006;2022-12-18T08:56:29;341.97;;;96.60;;
4202;SDS011;2115;51.038;7.006;2022-12-18T08:58:55;357.13;;;98.93;;
4202;SDS011;2115;51.038;7.006;2022-12-18T09:01:21;366.70;;;102.07;;
4202;SDS011;2115;51.038;7.006;2022-12-18T09:03:47;384.03;;;105.70;;
4202;SDS011;2115;51.038;7.006;2022-12-18T09:06:14;369.87;;;100.27;;
4202;SDS011;2115;51.038;7.006;2022-12-18T09:08:41;385.53;;;105.30;;
4202;SDS011;2115;51.038;7.006;2022-12-18T09:11:19;374.37;;;101.80;;
4202;SDS011;2115;51.038;7.006;2022-12-18T09:13:49;383.83;;;102.60;;
4202;SDS011;2115;51.038;7.006;2022-12-18T09:16:15;382.60;;;101.30;;
4202;SDS011;2115;51.038;7.006;2022-12-18T09:18:41;392.83;;;101.80;;
4202;SDS011;2115;51.038;7.006;2022-12-18T09:21:07;387.30;;;104.03;;
4202;SDS011;2115;51.038;7.006;2022-12-18T09:23:36;372.40;;;98.17;;
4202;SDS011;2115;51.038;7.006;2022-12-18T09:26:02;393.57;;;103.10;;
4202;SDS011;2115;51.038;7.006;2022-12-18T09:28:27;382.13;;;100.83;;
4202;SDS011;2115;51.038;7.006;2022-12-18T09:30:53;388.63;;;103.27;;
4202;SDS011;2115;51.038;7.006;2022-12-18T09:33:18;419.13;;;108.00;;
4202;SDS011;2115;51.038;7.006;2022-12-18T09:35:44;392.90;;;103.60;;
4202;SDS011;2115;51.038;7.006;2022-12-18T09:38:15;405.90;;;102.13;;
4202;SDS011;2115;51.038;7.006;2022-12-18T09:40:43;405.93;;;103.40;;
4202;SDS011;2115;51.038;7.006;2022-12-18T09:43:14;417.23;;;105.60;;
4202;SDS011;2115;51.038;7.006;2022-12-18T09:45:50;434.07;;;110.83;;
4202;SDS011;2115;51.038;7.006;2022-12-18T09:48:25;422.60;;;106.83;;
4202;SDS011;2115;51.038;7.006;2022-12-18T09:50:54;427.10;;;106.20;;
4202;SDS011;2115;51.038;7.006;2022-12-18T09:53:27;426.47;;;103.27;;
4202;SDS011;2115;51.038;7.006;2022-12-18T09:55:55;435.13;;;105.00;;
4202;SDS011;2115;51.038;7.006;2022-12-18T09:58:24;442.80;;;110.00;;
4202;SDS011;2115;51.038;7.006;2022-12-18T10:00:53;426.37;;;102.77;;
4202;SDS011;2115;51.038;7.006;2022-12-18T10:03:19;430.17;;;105.10;;
4202;SDS011;2115;51.038;7.006;2022-12-18T10:13:59;458.93;;;111.43;;
4202;SDS011;2115;51.038;7.006;2022-12-18T10:16:32;452.00;;;107.77;;
4202;SDS011;2115;51.038;7.006;2022-12-18T10:19:06;449.77;;;106.90;;
4202;SDS011;2115;51.038;7.006;2022-12-18T10:26:48;467.30;;;110.00;;
4202;SDS011;2115;51.038;7.006;2022-12-18T10:29:14;462.60;;;109.13;;
4202;SDS011;2115;51.038;7.006;2022-12-18T10:31:41;467.70;;;110.90;;
4202;SDS011;2115;51.038;7.006;2022-12-18T10:34:11;459.13;;;106.60;;
4202;SDS011;2115;51.038;7.006;2022-12-18T10:36:37;467.30;;;110.03;;
4202;SDS011;2115;51.038;7.006;2022-12-18T10:39:24;471.10;;;110.30;;
4202;SDS011;2115;51.038;7.006;2022-12-18T10:41:51;477.27;;;111.43;;
4202;SDS011;2115;51.038;7.006;2022-12-18T10:46:45;479.63;;;112.13;;
4202;SDS011;2115;51.038;7.006;2022-12-18T10:49:22;466.73;;;105.97;;
4202;SDS011;2115;51.038;7.006;2022-12-18T10:52:03;477.23;;;109.57;;
4202;SDS011;2115;51.038;7.006;2022-12-18T10:54:30;473.07;;;107.53;;
4202;SDS011;2115;51.038;7.006;2022-12-18T10:57:17;487.17;;;115.33;;
4202;SDS011;2115;51.038;7.006;2022-12-18T10:59:53;477.30;;;112.17;;
4202;SDS011;2115;51.038;7.006;2022-12-18T11:02:35;486.77;;;115.47;;
4202;SDS011;2115;51.038;7.006;2022-12-18T11:05:02;485.80;;;113.17;;
4202;SDS011;2115;51.038;7.006;2022-12-18T11:07:48;474.60;;;110.10;;
4202;SDS011;2115;51.038;7.006;2022-12-18T11:10:18;486.80;;;114.90;;
4202;SDS011;2115;51.038;7.006;2022-12-18T11:12:44;481.40;;;111.73;;
4202;SDS011;2115;51.038;7.006;2022-12-18T11:15:19;487.90;;;111.90;;
4202;SDS011;2115;51.038;7.006;2022-12-18T11:17:47;493.93;;;116.20;;
4202;SDS011;2115;51.038;7.006;2022-12-18T11:23:12;483.40;;;111.53;;
4202;SDS011;2115;51.038;7.006;2022-12-18T11:25:38;483.70;;;110.53;;
4202;SDS011;2115;51.038;7.006;2022-12-18T11:28:05;484.70;;;110.93;;
4202;SDS011;2115;51.038;7.006;2022-12-18T11:30:51;482.70;;;110.07;;
4202;SDS011;2115;51.038;7.006;2022-12-18T11:33:37;487.90;;;113.20;;
4202;SDS011;2115;51.038;7.006;2022-12-18T11:36:04;488.67;;;113.27;;
4202;SDS011;2115;51.038;7.006;2022-12-18T11:38:37;483.37;;;110.80;;
4202;SDS011;2115;51.038;7.006;2022-12-18T11:43:52;486.93;;;112.97;;
4202;SDS011;2115;51.038;7.006;2022-12-18T11:48:59;488.83;;;114.30;;
4202;SDS011;2115;51.038;7.006;2022-12-18T11:51:33;484.97;;;110.13;;
4202;SDS011;2115;51.038;7.006;2022-12-18T11:54:04;479.20;;;111.80;;
4202;SDS011;2115;51.038;7.006;2022-12-18T11:56:39;497.00;;;117.87;;
4202;SDS011;2115;51.038;7.006;2022-12-18T12:01:48;484.77;;;115.10;;
4202;SDS011;2115;51.038;7.006;2022-12-18T12:06:57;487.67;;;114.50;;
4202;SDS011;2115;51.038;7.006;2022-12-18T12:09:33;471.00;;;108.20;;
4202;SDS011;2115;51.038;7.006;2022-12-18T12:15:16;473.27;;;108.83;;
4202;SDS011;2115;51.038;7.006;2022-12-18T12:20:53;466.37;;;107.90;;
4202;SDS011;2115;51.038;7.006;2022-12-18T12:26:31;466.20;;;109.10;;
4202;SDS011;2115;51.038;7.006;2022-12-18T12:34:19;479.07;;;110.97;;
4202;SDS011;2115;51.038;7.006;2022-12-18T12:39:38;468.07;;;110.17;;
4202;SDS011;2115;51.038;7.006;2022-12-18T12:42:05;470.07;;;112.63;;
4202;SDS011;2115;51.038;7.006;2022-12-18T12:45:03;476.73;;;114.67;;
4202;SDS011;2115;51.038;7.006;2022-12-18T12:47:31;458.90;;;106.97;;
4202;SDS011;2115;51.038;7.006;2022-12-18T12:50:01;462.47;;;110.00;;
4202;SDS011;2115;51.038;7.006;2022-12-18T12:55:05;473.97;;;113.27;;
4202;SDS011;2115;51.038;7.006;2022-12-18T12:57:44;463.30;;;110.60;;
4202;SDS011;2115;51.038;7.006;2022-12-18T13:00:13;463.33;;;110.63;;
4202;SDS011;2115;51.038;7.006;2022-12-18T13:05:58;461.67;;;108.97;;
4202;SDS011;2115;51.038;7.006;2022-12-18T13:08:28;460.20;;;107.53;;
4202;SDS011;2115;51.038;7.006;2022-12-18T13:10:55;482.23;;;117.80;;
4202;SDS011;2115;51.038;7.006;2022-12-18T13:13:53;459.60;;;108.50;;
4202;SDS011;2115;51.038;7.006;2022-12-18T13:16:21;456.80;;;106.53;;
4202;SDS011;2115;51.038;7.006;2022-12-18T13:18:51;462.77;;;109.40;;
4202;SDS011;2115;51.038;7.006;2022-12-18T13:21:20;464.43;;;110.23;;
4202;SDS011;2115;51.038;7.006;2022-12-18T13:23:49;462.27;;;111.00;;
4202;SDS011;2115;51.038;7.006;2022-12-18T13:31:15;459.37;;;107.00;;
4202;SDS011;2115;51.038;7.006;2022-12-18T13:34:18;458.97;;;109.87;;
4202;SDS011;2115;51.038;7.006;2022-12-18T13:36:51;462.67;;;109.37;;
4202;SDS011;2115;51.038;7.006;2022-12-18T13:42:28;468.40;;;112.67;;
4202;SDS011;2115;51.038;7.006;2022-12-18T13:45:00;469.80;;;112.07;;
4202;SDS011;2115;51.038;7.006;2022-12-18T13:47:36;461.53;;;109.77;;
4202;SDS011;2115;51.038;7.006;2022-12-18T13:50:10;466.83;;;111.53;;
4202;SDS011;2115;51.038;7.006;2022-12-18T13:52:50;455.53;;;107.97;;
4202;SDS011;2115;51.038;7.006;2022-12-18T13:55:16;466.13;;;113.63;;
4202;SDS011;2115;51.038;7.006;2022-12-18T13:57:44;456.30;;;108.90;;
4202;SDS011;2115;51.038;7.006;2022-12-18T14:02:47;460.97;;;110.10;;
4202;SDS011;2115;51.038;7.006;2022-12-18T14:07:48;465.23;;;112.70;;
4202;SDS011;2115;51.038;7.006;2022-12-18T14:10:14;456.60;;;108.30;;
4202;SDS011;2115;51.038;7.006;2022-12-18T14:12:44;476.37;;;113.20;;
4202;SDS011;2115;51.038;7.006;2022-12-18T14:20:57;458.20;;;110.47;;
4202;SDS011;2115;51.038;7.006;2022-12-18T14:25:55;458.27;;;110.80;;
4202;SDS011;2115;51.038;7.006;2022-12-18T14:28:21;460.17;;;107.97;;
4202;SDS011;2115;51.038;7.006;2022-12-18T14:30:50;451.87;;;104.73;;
4202;SDS011;2115;51.038;7.006;2022-12-18T14:33:17;455.87;;;109.47;;
4202;SDS011;2115;51.038;7.006;2022-12-18T14:38:32;465.20;;;111.80;;
4202;SDS011;2115;51.038;7.006;2022-12-18T14:40:59;457.40;;;110.47;;
4202;SDS011;2115;51.038;7.006;2022-12-18T14:43:28;446.57;;;104.37;;
4202;SDS011;2115;51.038;7.006;2022-12-18T14:45:54;469.93;;;116.13;;
4202;SDS011;2115;51.038;7.006;2022-12-18T14:48:21;454.50;;;110.10;;
4202;SDS011;2115;51.038;7.006;2022-12-18T14:50:55;448.90;;;106.27;;
4202;SDS011;2115;51.038;7.006;2022-12-18T15:03:55;455.60;;;113.33;;
4202;SDS011;2115;51.038;7.006;2022-12-18T15:06:28;458.77;;;108.03;;
4202;SDS011;2115;51.038;7.006;2022-12-18T15:08:59;460.60;;;114.20;;
4202;SDS011;2115;51.038;7.006;2022-12-18T15:11:35;447.17;;;109.60;;
4202;SDS011;2115;51.038;7.006;2022-12-18T15:16:59;456.97;;;111.40;;
4202;SDS011;2115;51.038;7.006;2022-12-18T15:19:32;447.83;;;107.47;;
4202;SDS011;2115;51.038;7.006;2022-12-18T15:21:59;452.10;;;108.53;;
4202;SDS011;2115;51.038;7.006;2022-12-18T15:24:26;449.57;;;105.30;;
4202;SDS011;2115;51.038;7.006;2022-12-18T15:26:54;447.13;;;105.70;;
4202;SDS011;2115;51.038;7.006;2022-12-18T15:29:21;446.90;;;107.83;;
4202;SDS011;2115;51.038;7.006;2022-12-18T15:32:00;449.90;;;107.30;;
4202;SDS011;2115;51.038;7.006;2022-12-18T15:34:27;448.00;;;107.83;;
4202;SDS011;2115;51.038;7.006;2022-12-18T15:36:52;450.83;;;108.70;;
4202;SDS011;2115;51.038;7.006;2022-12-18T15:39:18;447.73;;;108.67;;
4202;SDS011;2115;51.038;7.006;2022-12-18T15:41:43;446.57;;;107.67;;
4202;SDS011;2115;51.038;7.006;2022-12-18T15:44:29;448.07;;;108.97;;
4202;SDS011;2115;51.038;7.006;2022-12-18T15:46:54;456.07;;;113.47;;
4202;SDS011;2115;51.038;7.006;2022-12-18T15:49:21;446.27;;;107.80;;
4202;SDS011;2115;51.038;7.006;2022-12-18T15:51:47;451.20;;;109.80;;
4202;SDS011;2115;51.038;7.006;2022-12-18T15:54:18;444.30;;;106.63;;
4202;SDS011;2115;51.038;7.006;2022-12-18T15:57:03;440.00;;;104.10;;
4202;SDS011;2115;51.038;7.006;2022-12-18T15:59:47;444.77;;;109.37;;
4202;SDS011;2115;51.038;7.006;2022-12-18T16:02:14;443.60;;;110.10;;
4202;SDS011;2115;51.038;7.006;2022-12-18T16:04:41;437.17;;;104.87;;
4202;SDS011;2115;51.038;7.006;2022-12-18T16:07:07;444.50;;;109.40;;
4202;SDS011;2115;51.038;7.006;2022-12-18T16:09:32;442.07;;;108.80;;
4202;SDS011;2115;51.038;7.006;2022-12-18T16:11:58;443.20;;;106.67;;
4202;SDS011;2115;51.038;7.006;2022-12-18T16:14:25;441.13;;;107.63;;
4202;SDS011;2115;51.038;7.006;2022-12-18T16:16:56;448.10;;;109.50;;
4202;SDS011;2115;51.038;7.006;2022-12-18T16:19:23;450.80;;;113.00;;
4202;SDS011;2115;51.038;7.006;2022-12-18T16:21:49;443.90;;;110.00;;
4202;SDS011;2115;51.038;7.006;2022-12-18T16:24:16;452.00;;;113.27;;
4202;SDS011;2115;51.038;7.006;2022-12-18T16:26:43;447.77;;;112.70;;
4202;SDS011;2115;51.038;7.006;2022-12-18T16:29:09;460.83;;;114.80;;
4202;SDS011;2115;51.038;7.006;2022-12-18T16:31:35;443.40;;;110.57;;
4202;SDS011;2115;51.038;7.006;2022-12-18T16:36:51;445.20;;;108.50;;